RYR3LC LKPR-LZKZ
Flight info
| Callsign | RYR3LC |
|---|---|
| Flight time | 0h 52m |
| Altitude | 29000 |
| Route | VOZ DCT LIKSA DCT UPLAV DCT MAKAL DCT TAKOS |
| Aircraft | B738/M-SDE2E3FGHIRWXY/LB1 |
Departure
| Time | 2026-05-06 17:33 |
|---|---|
| Airport | Václav Havel Airport Prague (LKPR) |
Arrival
| Time | 2026-05-06 18:25 |
|---|---|
| Airport | Košice International Airport (LZKZ) |
| Time | Latitude | Longitude | Altitude | Speed | Heading |
|---|---|---|---|---|---|
| 2026-05-06 16:25 | 50.10981 | 14.26324 | 1172 ft | 0 kts | 124° |
| 2026-05-06 17:23 | 50.10980 | 14.26326 | 1172 ft | 1 kts | 124° |
| 2026-05-06 17:23 | 50.10971 | 14.26347 | 1171 ft | 4 kts | 124° |
| 2026-05-06 17:23 | 50.10946 | 14.26390 | 1171 ft | 7 kts | 163° |
| 2026-05-06 17:24 | 50.10900 | 14.26358 | 1170 ft | 6 kts | 214° |
| 2026-05-06 17:24 | 50.10864 | 14.26320 | 1173 ft | 6 kts | 214° |
| 2026-05-06 17:24 | 50.10830 | 14.26283 | 1170 ft | 6 kts | 214° |
| 2026-05-06 17:24 | 50.10789 | 14.26240 | 1171 ft | 8 kts | 214° |
| 2026-05-06 17:25 | 50.10737 | 14.26184 | 1171 ft | 10 kts | 214° |
| 2026-05-06 17:25 | 50.10675 | 14.26119 | 1171 ft | 10 kts | 214° |
| 2026-05-06 17:25 | 50.10639 | 14.26080 | 1170 ft | 3 kts | 214° |
| 2026-05-06 17:25 | 50.10632 | 14.26073 | 1171 ft | 0 kts | 212° |
| 2026-05-06 17:26 | 50.10631 | 14.26072 | 1171 ft | 1 kts | 212° |
| 2026-05-06 17:26 | 50.10606 | 14.26049 | 1172 ft | 9 kts | 210° |
| 2026-05-06 17:27 | 50.10542 | 14.25984 | 1173 ft | 11 kts | 212° |
| 2026-05-06 17:27 | 50.10477 | 14.26023 | 1175 ft | 11 kts | 129° |
| 2026-05-06 17:27 | 50.10422 | 14.26137 | 1172 ft | 15 kts | 127° |
| 2026-05-06 17:27 | 50.10347 | 14.26292 | 1173 ft | 21 kts | 127° |
| 2026-05-06 17:28 | 50.10250 | 14.26493 | 1176 ft | 26 kts | 127° |
| 2026-05-06 17:28 | 50.10135 | 14.26730 | 1177 ft | 28 kts | 127° |
| 2026-05-06 17:28 | 50.10020 | 14.26968 | 1194 ft | 27 kts | 127° |
| 2026-05-06 17:28 | 50.09912 | 14.27191 | 1200 ft | 25 kts | 127° |
| 2026-05-06 17:29 | 50.09806 | 14.27384 | 1203 ft | 22 kts | 135° |
| 2026-05-06 17:29 | 50.09698 | 14.27550 | 1205 ft | 21 kts | 135° |
| 2026-05-06 17:29 | 50.09615 | 14.27645 | 1209 ft | 12 kts | 188° |
| 2026-05-06 17:29 | 50.09546 | 14.27575 | 1212 ft | 12 kts | 216° |
| 2026-05-06 17:30 | 50.09496 | 14.27516 | 1211 ft | 3 kts | 216° |
| 2026-05-06 17:30 | 50.09494 | 14.27513 | 1211 ft | 0 kts | 216° |
| 2026-05-06 17:31 | 50.09479 | 14.27497 | 1210 ft | 6 kts | 216° |
| 2026-05-06 17:31 | 50.09430 | 14.27442 | 1209 ft | 10 kts | 217° |
| 2026-05-06 17:31 | 50.09428 | 14.27374 | 1208 ft | 6 kts | 305° |
| 2026-05-06 17:32 | 50.09443 | 14.27344 | 1208 ft | 4 kts | 307° |
| 2026-05-06 17:32 | 50.09499 | 14.27229 | 1205 ft | 39 kts | 307° |
| 2026-05-06 17:32 | 50.09816 | 14.26571 | 1205 ft | 111 kts | 307° |
| 2026-05-06 17:32 | 50.10412 | 14.25336 | 1227 ft | 167 kts | 307° |
| 2026-05-06 17:33 | 50.11105 | 14.23897 | 2030 ft | 166 kts | 307° |
| 2026-05-06 17:33 | 50.11806 | 14.22439 | 2842 ft | 170 kts | 307° |
| 2026-05-06 17:33 | 50.12522 | 14.20948 | 3638 ft | 173 kts | 306° |
| 2026-05-06 17:33 | 50.13253 | 14.19428 | 4432 ft | 179 kts | 304° |
| 2026-05-06 17:34 | 50.14052 | 14.17766 | 4901 ft | 203 kts | 304° |
| 2026-05-06 17:34 | 50.14951 | 14.15899 | 5256 ft | 226 kts | 304° |
| 2026-05-06 17:34 | 50.15911 | 14.13908 | 5903 ft | 235 kts | 304° |
| 2026-05-06 17:34 | 50.16920 | 14.11815 | 6555 ft | 246 kts | 304° |
| 2026-05-06 17:35 | 50.17939 | 14.09674 | 7443 ft | 245 kts | 298° |
| 2026-05-06 17:35 | 50.18463 | 14.07206 | 8292 ft | 240 kts | 267° |
| 2026-05-06 17:35 | 50.18091 | 14.04733 | 9173 ft | 235 kts | 238° |
| 2026-05-06 17:36 | 50.15636 | 14.01057 | 10118 ft | 271 kts | 216° |
| 2026-05-06 17:36 | 50.13997 | 13.99326 | 10316 ft | 298 kts | 207° |
| 2026-05-06 17:36 | 50.11913 | 13.98426 | 10535 ft | 326 kts | 189° |
| 2026-05-06 17:36 | 50.09583 | 13.98110 | 10775 ft | 349 kts | 186° |
| 2026-05-06 17:37 | 50.07087 | 13.97875 | 11020 ft | 368 kts | 185° |
| 2026-05-06 17:37 | 50.04499 | 13.97655 | 11587 ft | 376 kts | 185° |
| 2026-05-06 17:37 | 50.01875 | 13.97443 | 12322 ft | 379 kts | 185° |
| 2026-05-06 17:37 | 49.99232 | 13.97242 | 13083 ft | 382 kts | 185° |
| 2026-05-06 17:38 | 49.96563 | 13.97102 | 13772 ft | 387 kts | 180° |
| 2026-05-06 17:38 | 49.93896 | 13.97923 | 14343 ft | 398 kts | 162° |
| 2026-05-06 17:38 | 49.91443 | 13.99991 | 14825 ft | 405 kts | 147° |
| 2026-05-06 17:38 | 49.89458 | 14.03074 | 15069 ft | 415 kts | 129° |
| 2026-05-06 17:39 | 49.87839 | 14.06792 | 15356 ft | 416 kts | 127° |
| 2026-05-06 17:39 | 49.86265 | 14.10568 | 15593 ft | 418 kts | 126° |
| 2026-05-06 17:39 | 49.84695 | 14.14366 | 15741 ft | 420 kts | 126° |
| 2026-05-06 17:39 | 49.83116 | 14.18165 | 15736 ft | 419 kts | 127° |
| 2026-05-06 17:40 | 49.81528 | 14.21950 | 15741 ft | 420 kts | 127° |
| 2026-05-06 17:40 | 49.79911 | 14.25763 | 16095 ft | 426 kts | 127° |
| 2026-05-06 17:40 | 49.78279 | 14.29593 | 16857 ft | 425 kts | 127° |
| 2026-05-06 17:40 | 49.76646 | 14.33409 | 17557 ft | 426 kts | 128° |
| 2026-05-06 17:41 | 49.74999 | 14.37248 | 18108 ft | 431 kts | 127° |
| 2026-05-06 17:41 | 49.73547 | 14.41350 | 18563 ft | 441 kts | 117° |
| 2026-05-06 17:41 | 49.72567 | 14.45881 | 19080 ft | 449 kts | 109° |
| 2026-05-06 17:41 | 49.71797 | 14.50568 | 19599 ft | 452 kts | 108° |
| 2026-05-06 17:42 | 49.71034 | 14.55294 | 20074 ft | 455 kts | 108° |
| 2026-05-06 17:42 | 49.70260 | 14.60064 | 20541 ft | 459 kts | 109° |
| 2026-05-06 17:42 | 49.69472 | 14.64853 | 20992 ft | 462 kts | 109° |
| 2026-05-06 17:42 | 49.68679 | 14.69599 | 21421 ft | 465 kts | 109° |
| 2026-05-06 17:43 | 49.67860 | 14.74452 | 21864 ft | 468 kts | 109° |
| 2026-05-06 17:43 | 49.67031 | 14.79318 | 22300 ft | 470 kts | 109° |
| 2026-05-06 17:43 | 49.66193 | 14.84211 | 22717 ft | 473 kts | 110° |
| 2026-05-06 17:43 | 49.65346 | 14.89134 | 23116 ft | 476 kts | 110° |
| 2026-05-06 17:44 | 49.64479 | 14.94158 | 23493 ft | 479 kts | 110° |
| 2026-05-06 17:44 | 49.63620 | 14.99124 | 23829 ft | 481 kts | 110° |
| 2026-05-06 17:44 | 49.62764 | 15.04058 | 24138 ft | 484 kts | 110° |
| 2026-05-06 17:44 | 49.61890 | 15.09083 | 24444 ft | 487 kts | 110° |
| 2026-05-06 17:45 | 49.61006 | 15.14155 | 24746 ft | 490 kts | 110° |
| 2026-05-06 17:45 | 49.60118 | 15.19235 | 25044 ft | 492 kts | 110° |
| 2026-05-06 17:45 | 49.59223 | 15.24341 | 25344 ft | 495 kts | 110° |
| 2026-05-06 17:45 | 49.58321 | 15.29471 | 25630 ft | 497 kts | 110° |
| 2026-05-06 17:46 | 49.57412 | 15.34626 | 25917 ft | 500 kts | 110° |
| 2026-05-06 17:46 | 49.56499 | 15.39795 | 26256 ft | 500 kts | 110° |
| 2026-05-06 17:46 | 49.55586 | 15.44945 | 26660 ft | 499 kts | 110° |
| 2026-05-06 17:46 | 49.54669 | 15.50111 | 27074 ft | 499 kts | 110° |
| 2026-05-06 17:47 | 49.53752 | 15.55258 | 27427 ft | 499 kts | 110° |
| 2026-05-06 17:47 | 49.52829 | 15.60414 | 27776 ft | 500 kts | 110° |
| 2026-05-06 17:47 | 49.51904 | 15.65573 | 28169 ft | 500 kts | 110° |
| 2026-05-06 17:47 | 49.50978 | 15.70720 | 28577 ft | 499 kts | 110° |
| 2026-05-06 17:48 | 49.50046 | 15.75888 | 28724 ft | 497 kts | 110° |
| 2026-05-06 17:48 | 49.49133 | 15.80951 | 28708 ft | 484 kts | 110° |
| 2026-05-06 17:48 | 49.47360 | 15.90753 | 28718 ft | 472 kts | 111° |
| 2026-05-06 17:49 | 49.45574 | 16.00496 | 28736 ft | 475 kts | 111° |
| 2026-05-06 17:49 | 49.43774 | 16.10270 | 28732 ft | 476 kts | 111° |
| 2026-05-06 17:50 | 49.41962 | 16.20078 | 28730 ft | 477 kts | 111° |
| 2026-05-06 17:50 | 49.40143 | 16.29883 | 28741 ft | 477 kts | 111° |
| 2026-05-06 17:51 | 49.38318 | 16.39668 | 28722 ft | 474 kts | 111° |
| 2026-05-06 17:51 | 49.36501 | 16.49365 | 28726 ft | 473 kts | 111° |
| 2026-05-06 17:52 | 49.34670 | 16.59069 | 28740 ft | 474 kts | 111° |
| 2026-05-06 17:52 | 49.32832 | 16.68767 | 28741 ft | 473 kts | 111° |
| 2026-05-06 17:53 | 49.30993 | 16.78421 | 28741 ft | 471 kts | 111° |
| 2026-05-06 17:53 | 49.29151 | 16.88045 | 28742 ft | 470 kts | 111° |
| 2026-05-06 17:54 | 49.27316 | 16.97579 | 28750 ft | 470 kts | 111° |
| 2026-05-06 17:54 | 49.25458 | 17.07183 | 28745 ft | 471 kts | 111° |
| 2026-05-06 17:55 | 49.23592 | 17.16786 | 28749 ft | 471 kts | 111° |
| 2026-05-06 17:55 | 49.21717 | 17.26383 | 28765 ft | 471 kts | 111° |
| 2026-05-06 17:56 | 49.19834 | 17.35971 | 28765 ft | 471 kts | 111° |
| 2026-05-06 17:56 | 49.17943 | 17.45559 | 28763 ft | 471 kts | 111° |
| 2026-05-06 17:57 | 49.16044 | 17.55135 | 28770 ft | 471 kts | 111° |
| 2026-05-06 17:57 | 49.14136 | 17.64710 | 28782 ft | 471 kts | 111° |
| 2026-05-06 17:58 | 49.12220 | 17.74277 | 28788 ft | 471 kts | 111° |
| 2026-05-06 17:58 | 49.10298 | 17.83833 | 28792 ft | 470 kts | 111° |
| 2026-05-06 17:59 | 49.08369 | 17.93370 | 28803 ft | 471 kts | 111° |
| 2026-05-06 17:59 | 49.06429 | 18.02917 | 28813 ft | 472 kts | 111° |
| 2026-05-06 18:00 | 49.04498 | 18.12378 | 28808 ft | 469 kts | 111° |
| 2026-05-06 18:00 | 49.02550 | 18.21876 | 28817 ft | 469 kts | 111° |
| 2026-05-06 18:01 | 49.00690 | 18.30901 | 28823 ft | 468 kts | 111° |
| 2026-05-06 18:01 | 48.98730 | 18.40361 | 28820 ft | 469 kts | 111° |
| 2026-05-06 18:02 | 48.96759 | 18.49836 | 28819 ft | 469 kts | 111° |
| 2026-05-06 18:02 | 48.94786 | 18.59280 | 28766 ft | 467 kts | 111° |
| 2026-05-06 18:03 | 48.93800 | 18.63983 | 28456 ft | 464 kts | 111° |
| 2026-05-06 18:03 | 48.92825 | 18.68627 | 28197 ft | 458 kts | 111° |
| 2026-05-06 18:03 | 48.91860 | 18.73216 | 27933 ft | 454 kts | 111° |
| 2026-05-06 18:03 | 48.90896 | 18.77780 | 27677 ft | 453 kts | 111° |
| 2026-05-06 18:04 | 48.89929 | 18.82340 | 27411 ft | 452 kts | 111° |
| 2026-05-06 18:04 | 48.88965 | 18.86879 | 27159 ft | 451 kts | 111° |
| 2026-05-06 18:04 | 48.88003 | 18.91403 | 26904 ft | 450 kts | 111° |
| 2026-05-06 18:04 | 48.87041 | 18.95915 | 26648 ft | 448 kts | 111° |
| 2026-05-06 18:05 | 48.86080 | 19.00412 | 26401 ft | 447 kts | 111° |
| 2026-05-06 18:05 | 48.85120 | 19.04901 | 26156 ft | 445 kts | 111° |
| 2026-05-06 18:05 | 48.84163 | 19.09361 | 25901 ft | 444 kts | 111° |
| 2026-05-06 18:05 | 48.83320 | 19.13872 | 25227 ft | 448 kts | 103° |
| 2026-05-06 18:06 | 48.83015 | 19.18500 | 24715 ft | 447 kts | 92° |
| 2026-05-06 18:06 | 48.83087 | 19.23220 | 24192 ft | 445 kts | 90° |
| 2026-05-06 18:06 | 48.83207 | 19.27901 | 23658 ft | 442 kts | 89° |
| 2026-05-06 18:06 | 48.83329 | 19.32538 | 23107 ft | 438 kts | 89° |
| 2026-05-06 18:07 | 48.83442 | 19.37136 | 22540 ft | 434 kts | 90° |
| 2026-05-06 18:07 | 48.83541 | 19.41690 | 22008 ft | 430 kts | 90° |
| 2026-05-06 18:07 | 48.83628 | 19.46195 | 21502 ft | 425 kts | 90° |
| 2026-05-06 18:07 | 48.83707 | 19.50652 | 20997 ft | 421 kts | 90° |
| 2026-05-06 18:08 | 48.83757 | 19.53644 | 20668 ft | 418 kts | 91° |
| 2026-05-06 18:08 | 48.83826 | 19.57975 | 20186 ft | 414 kts | 91° |
| 2026-05-06 18:08 | 48.83894 | 19.62326 | 19695 ft | 411 kts | 91° |
| 2026-05-06 18:08 | 48.83959 | 19.66639 | 19209 ft | 407 kts | 91° |
| 2026-05-06 18:09 | 48.84022 | 19.70914 | 18741 ft | 404 kts | 91° |
| 2026-05-06 18:09 | 48.84083 | 19.75165 | 18271 ft | 401 kts | 91° |
| 2026-05-06 18:09 | 48.84142 | 19.79392 | 17723 ft | 399 kts | 91° |
| 2026-05-06 18:09 | 48.84199 | 19.83582 | 17218 ft | 395 kts | 91° |
| 2026-05-06 18:10 | 48.84255 | 19.87731 | 16731 ft | 391 kts | 91° |
| 2026-05-06 18:10 | 48.84309 | 19.91838 | 16262 ft | 387 kts | 91° |
| 2026-05-06 18:10 | 48.84360 | 19.95904 | 15811 ft | 384 kts | 91° |
| 2026-05-06 18:10 | 48.84410 | 19.99942 | 15344 ft | 380 kts | 91° |
| 2026-05-06 18:11 | 48.84457 | 20.03939 | 14881 ft | 377 kts | 91° |
| 2026-05-06 18:11 | 48.84502 | 20.07843 | 14469 ft | 373 kts | 91° |
| 2026-05-06 18:11 | 48.84547 | 20.11821 | 14047 ft | 371 kts | 91° |
| 2026-05-06 18:11 | 48.84589 | 20.15636 | 13936 ft | 361 kts | 91° |
| 2026-05-06 18:12 | 48.84631 | 20.19401 | 13881 ft | 350 kts | 92° |
| 2026-05-06 18:12 | 48.84670 | 20.23041 | 13659 ft | 343 kts | 92° |
| 2026-05-06 18:12 | 48.84706 | 20.26656 | 13291 ft | 340 kts | 92° |
| 2026-05-06 18:12 | 48.84739 | 20.30237 | 12903 ft | 339 kts | 92° |
| 2026-05-06 18:13 | 48.84772 | 20.33802 | 12491 ft | 338 kts | 92° |
| 2026-05-06 18:13 | 48.84804 | 20.37369 | 12110 ft | 337 kts | 92° |
| 2026-05-06 18:13 | 48.84834 | 20.40912 | 11761 ft | 335 kts | 92° |
| 2026-05-06 18:13 | 48.84863 | 20.44441 | 11422 ft | 333 kts | 92° |
| 2026-05-06 18:14 | 48.84892 | 20.47940 | 11002 ft | 330 kts | 92° |
| 2026-05-06 18:14 | 48.84919 | 20.51425 | 10520 ft | 332 kts | 91° |
| 2026-05-06 18:14 | 48.84945 | 20.54939 | 10115 ft | 332 kts | 91° |
| 2026-05-06 18:14 | 48.84971 | 20.58389 | 10017 ft | 320 kts | 91° |
| 2026-05-06 18:15 | 48.84995 | 20.61702 | 9853 ft | 312 kts | 91° |
| 2026-05-06 18:15 | 48.85017 | 20.64976 | 9571 ft | 306 kts | 91° |
| 2026-05-06 18:15 | 48.85037 | 20.68176 | 9195 ft | 301 kts | 92° |
| 2026-05-06 18:15 | 48.85057 | 20.71337 | 8811 ft | 297 kts | 92° |
| 2026-05-06 18:16 | 48.85076 | 20.74460 | 8378 ft | 296 kts | 92° |
| 2026-05-06 18:16 | 48.85091 | 20.77617 | 7937 ft | 301 kts | 92° |
| 2026-05-06 18:16 | 48.85107 | 20.80754 | 7586 ft | 302 kts | 92° |
| 2026-05-06 18:16 | 48.85124 | 20.83958 | 7215 ft | 302 kts | 92° |
| 2026-05-06 18:17 | 48.85139 | 20.87139 | 6928 ft | 301 kts | 92° |
| 2026-05-06 18:17 | 48.85151 | 20.90337 | 6559 ft | 305 kts | 92° |
| 2026-05-06 18:17 | 48.85164 | 20.93554 | 6236 ft | 304 kts | 93° |
| 2026-05-06 18:17 | 48.85178 | 20.96738 | 6004 ft | 297 kts | 93° |
| 2026-05-06 18:18 | 48.85192 | 20.99821 | 5774 ft | 287 kts | 92° |
| 2026-05-06 18:18 | 48.85205 | 21.02823 | 5457 ft | 281 kts | 94° |
| 2026-05-06 18:18 | 48.85215 | 21.05771 | 5105 ft | 278 kts | 94° |
| 2026-05-06 18:18 | 48.85222 | 21.08672 | 4824 ft | 268 kts | 93° |
| 2026-05-06 18:19 | 48.85229 | 21.11427 | 4605 ft | 255 kts | 94° |
| 2026-05-06 18:19 | 48.85237 | 21.14068 | 4484 ft | 245 kts | 94° |
| 2026-05-06 18:19 | 48.85242 | 21.16606 | 4335 ft | 236 kts | 94° |
| 2026-05-06 18:19 | 48.85246 | 21.19044 | 4281 ft | 226 kts | 96° |
| 2026-05-06 18:20 | 48.85060 | 21.21291 | 4256 ft | 211 kts | 109° |
| 2026-05-06 18:20 | 48.84711 | 21.23483 | 4257 ft | 211 kts | 110° |
| 2026-05-06 18:20 | 48.84364 | 21.25613 | 4091 ft | 208 kts | 111° |
| 2026-05-06 18:20 | 48.83959 | 21.27647 | 3918 ft | 193 kts | 127° |
| 2026-05-06 18:21 | 48.83073 | 21.28985 | 3724 ft | 173 kts | 159° |
| 2026-05-06 18:21 | 48.81971 | 21.29440 | 3534 ft | 159 kts | 184° |
| 2026-05-06 18:21 | 48.80899 | 21.29210 | 3364 ft | 155 kts | 195° |
| 2026-05-06 18:21 | 48.79847 | 21.28855 | 3186 ft | 155 kts | 196° |
| 2026-05-06 18:22 | 48.78799 | 21.28490 | 2976 ft | 155 kts | 195° |
| 2026-05-06 18:22 | 48.77760 | 21.28126 | 2765 ft | 152 kts | 195° |
| 2026-05-06 18:22 | 48.76715 | 21.27762 | 2597 ft | 157 kts | 195° |
| 2026-05-06 18:22 | 48.75629 | 21.27382 | 2419 ft | 163 kts | 195° |
| 2026-05-06 18:23 | 48.74538 | 21.26999 | 2174 ft | 162 kts | 195° |
| 2026-05-06 18:23 | 48.73487 | 21.26625 | 1971 ft | 148 kts | 195° |
| 2026-05-06 18:23 | 48.72507 | 21.26283 | 1752 ft | 142 kts | 193° |
| 2026-05-06 18:23 | 48.71536 | 21.25952 | 1566 ft | 145 kts | 194° |
| 2026-05-06 18:24 | 48.70539 | 21.25613 | 1329 ft | 148 kts | 195° |
| 2026-05-06 18:24 | 48.69547 | 21.25249 | 1143 ft | 146 kts | 193° |
| 2026-05-06 18:24 | 48.68556 | 21.24902 | 964 ft | 146 kts | 193° |
| 2026-05-06 18:24 | 48.67575 | 21.24561 | 783 ft | 143 kts | 193° |
| 2026-05-06 18:25 | 48.66665 | 21.24244 | 754 ft | 116 kts | 193° |
| 2026-05-06 18:25 | 48.66077 | 21.24039 | 753 ft | 39 kts | 193° |
| 2026-05-06 18:25 | 48.65936 | 21.24005 | 753 ft | 11 kts | 160° |
| 2026-05-06 18:25 | 48.65900 | 21.24094 | 756 ft | 10 kts | 102° |
| 2026-05-06 18:26 | 48.65886 | 21.24197 | 756 ft | 10 kts | 102° |
| 2026-05-06 18:26 | 48.65884 | 21.24296 | 754 ft | 9 kts | 59° |
| 2026-05-06 18:26 | 48.65942 | 21.24336 | 756 ft | 9 kts | 14° |
| 2026-05-06 18:26 | 48.66005 | 21.24358 | 755 ft | 10 kts | 13° |
| 2026-05-06 18:27 | 48.66079 | 21.24385 | 753 ft | 13 kts | 13° |
| 2026-05-06 18:27 | 48.66176 | 21.24419 | 753 ft | 16 kts | 13° |
| 2026-05-06 18:27 | 48.66294 | 21.24461 | 756 ft | 19 kts | 13° |
| 2026-05-06 18:27 | 48.66432 | 21.24510 | 756 ft | 21 kts | 13° |
| 2026-05-06 18:28 | 48.66577 | 21.24561 | 756 ft | 21 kts | 13° |
| 2026-05-06 18:28 | 48.66717 | 21.24609 | 755 ft | 21 kts | 12° |
| 2026-05-06 18:28 | 48.66854 | 21.24657 | 755 ft | 20 kts | 13° |
| 2026-05-06 18:28 | 48.66987 | 21.24702 | 755 ft | 19 kts | 12° |
| 2026-05-06 18:29 | 48.67108 | 21.24744 | 755 ft | 15 kts | 12° |
| 2026-05-06 18:29 | 48.67178 | 21.24719 | 755 ft | 9 kts | 307° |
| 2026-05-06 18:29 | 48.67195 | 21.24635 | 755 ft | 9 kts | 282° |
| 2026-05-06 18:29 | 48.67211 | 21.24524 | 757 ft | 13 kts | 282° |
| 2026-05-06 18:30 | 48.67237 | 21.24356 | 755 ft | 20 kts | 283° |
| 2026-05-06 18:30 | 48.67267 | 21.24166 | 753 ft | 14 kts | 283° |
| 2026-05-06 18:30 | 48.67287 | 21.24036 | 756 ft | 12 kts | 283° |
| 2026-05-06 18:30 | 48.67303 | 21.23938 | 755 ft | 6 kts | 287° |
| 2026-05-06 18:31 | 48.67330 | 21.23900 | 755 ft | 5 kts | 330° |
| 2026-05-06 18:31 | 48.67343 | 21.23877 | 756 ft | 2 kts | 268° |
| 2026-05-06 18:31 | 48.67336 | 21.23859 | 755 ft | 2 kts | 236° |
| 2026-05-06 18:31 | 48.67331 | 21.23850 | 754 ft | 1 kts | 234° |
| 2026-05-06 18:32 | 48.67331 | 21.23848 | 754 ft | 0 kts | 234° |